createdAt,value
2022-09-10T00:02:01.840Z,59.94
2022-09-10T00:04:28.774Z,60.43
2022-09-10T00:06:56.373Z,60.42
2022-09-10T00:09:23.126Z,60.69
2022-09-10T00:11:49.880Z,60.86
2022-09-10T00:14:19.980Z,61.42
2022-09-10T00:16:46.823Z,61.30
2022-09-10T00:19:14.659Z,61.22
2022-09-10T00:21:41.235Z,61.66
2022-09-10T00:24:08.449Z,61.42
2022-09-10T00:26:39.950Z,61.02
2022-09-10T00:29:09.455Z,60.13
2022-09-10T00:31:37.273Z,60.04
2022-09-10T00:34:05.791Z,60.30
2022-09-10T00:36:36.178Z,60.41
2022-09-10T00:39:10.265Z,61.30
2022-09-10T00:41:39.869Z,61.23
2022-09-10T00:44:37.556Z,60.53
2022-09-10T00:47:06.319Z,60.72
2022-09-10T00:49:38.733Z,60.50
2022-09-10T00:52:07.694Z,61.37
2022-09-10T00:54:36.095Z,61.25
2022-09-10T00:57:13.106Z,61.71
2022-09-10T00:59:47.808Z,62.03
2022-09-10T01:02:14.915Z,61.45
2022-09-10T01:04:43.060Z,60.88
2022-09-10T01:07:11.352Z,61.56
2022-09-10T01:09:40.238Z,60.79
2022-09-10T01:12:27.113Z,61.66
2022-09-10T01:15:08.530Z,61.65
2022-09-10T01:17:45.096Z,60.91
2022-09-10T01:20:40.980Z,61.38
2022-09-10T01:23:41.542Z,61.01
2022-09-10T01:26:31.942Z,60.98
2022-09-10T01:29:16.241Z,61.49
2022-09-10T01:31:55.545Z,61.00
2022-09-10T01:34:32.746Z,61.47
2022-09-10T01:37:07.893Z,61.19
2022-09-10T01:39:35.298Z,61.53
2022-09-10T01:42:01.946Z,61.02
2022-09-10T01:44:50.618Z,61.95
2022-09-10T01:47:41.658Z,62.41
2022-09-10T01:50:17.304Z,62.27
2022-09-10T01:52:53.867Z,62.48
2022-09-10T01:55:58.182Z,62.02
2022-09-10T01:58:45.569Z,61.80
2022-09-10T02:01:49.180Z,62.30
2022-09-10T02:04:19.254Z,62.10
2022-09-10T02:06:50.004Z,62.60
2022-09-10T02:09:19.062Z,62.84
2022-09-10T02:11:51.885Z,63.50
2022-09-10T02:14:55.141Z,63.56
2022-09-10T02:17:32.171Z,63.22
2022-09-10T02:20:04.482Z,63.22
2022-09-10T02:22:33.497Z,62.76
2022-09-10T02:25:00.030Z,62.92
2022-09-10T02:27:27.002Z,63.07
2022-09-10T02:29:55.328Z,62.88
2022-09-10T02:32:22.336Z,62.51
2022-09-10T02:34:51.323Z,63.03
2022-09-10T02:37:20.226Z,62.73
2022-09-10T02:39:46.900Z,62.84
2022-09-10T02:42:16.925Z,63.10
2022-09-10T02:44:46.172Z,63.59
2022-09-10T02:47:12.716Z,62.91
2022-09-10T02:49:39.269Z,63.73
2022-09-10T02:52:06.835Z,64.66
2022-09-10T02:54:35.402Z,64.31
2022-09-10T02:57:01.973Z,64.43
2022-09-10T02:59:29.124Z,64.29
2022-09-10T03:01:57.162Z,64.19
2022-09-10T03:04:23.786Z,64.25
2022-09-10T03:06:50.469Z,64.43
2022-09-10T03:09:17.244Z,64.48
2022-09-10T03:11:43.819Z,64.61
2022-09-10T03:14:10.891Z,64.49
2022-09-10T03:16:37.706Z,64.58
2022-09-10T03:19:06.241Z,64.31
2022-09-10T03:21:34.327Z,64.32
2022-09-10T03:24:01.148Z,63.87
2022-09-10T03:26:30.411Z,64.18
2022-09-10T03:28:57.396Z,63.31
2022-09-10T03:31:27.231Z,62.88
2022-09-10T03:33:54.024Z,63.87
2022-09-10T03:36:22.714Z,63.15
2022-09-10T03:38:50.069Z,63.38
2022-09-10T03:41:17.398Z,65.02
2022-09-10T03:43:44.810Z,64.76
2022-09-10T03:46:12.117Z,63.53
2022-09-10T03:48:43.510Z,64.29
2022-09-10T03:51:10.916Z,63.71
2022-09-10T03:53:38.649Z,63.97
2022-09-10T03:56:06.845Z,64.22
2022-09-10T03:58:35.769Z,64.25
2022-09-10T04:01:03.396Z,64.24
2022-09-10T04:03:32.102Z,64.30
2022-09-10T04:05:58.704Z,63.56
2022-09-10T04:08:25.288Z,63.35
2022-09-10T04:10:54.596Z,62.80
2022-09-10T04:13:23.051Z,62.01
2022-09-10T04:15:49.669Z,61.88
2022-09-10T04:18:16.323Z,61.99
2022-09-10T04:20:46.990Z,63.27
2022-09-10T04:23:16.189Z,63.33
2022-09-10T04:25:43.412Z,62.41
2022-09-10T04:28:11.340Z,62.84
2022-09-10T04:30:40.155Z,63.11
2022-09-10T04:33:07.732Z,62.88
2022-09-10T04:35:34.507Z,63.16
2022-09-10T04:38:03.990Z,62.79
2022-09-10T04:40:30.603Z,62.49
2022-09-10T04:42:57.144Z,62.66
2022-09-10T04:45:25.078Z,63.13
2022-09-10T04:47:54.196Z,62.71
2022-09-10T04:50:21.880Z,62.37
2022-09-10T04:53:11.322Z,62.07
2022-09-10T04:55:40.215Z,61.83
2022-09-10T04:58:07.420Z,61.07
2022-09-10T05:00:34.441Z,61.08
2022-09-10T05:03:01.029Z,60.77
2022-09-10T05:05:28.680Z,61.07
2022-09-10T05:07:55.600Z,60.35
2022-09-10T05:10:23.484Z,60.50
2022-09-10T05:12:50.757Z,59.98
2022-09-10T05:15:17.814Z,59.54
2022-09-10T05:17:47.983Z,59.52
2022-09-10T05:20:15.257Z,59.97
2022-09-10T05:22:49.006Z,59.72
2022-09-10T05:25:15.784Z,60.44
2022-09-10T05:27:42.935Z,60.18
2022-09-10T05:30:14.159Z,59.66
2022-09-10T05:32:40.888Z,59.19
2022-09-10T05:35:08.706Z,59.67
2022-09-10T05:37:38.657Z,60.34
2022-09-10T05:40:07.623Z,59.76
2022-09-10T05:42:34.303Z,60.70
2022-09-10T05:45:00.959Z,60.95
2022-09-10T05:47:28.223Z,61.59
2022-09-10T05:49:56.271Z,61.43
2022-09-10T05:52:24.325Z,61.40
2022-09-10T05:54:51.783Z,61.31
2022-09-10T05:57:18.321Z,60.86
2022-09-10T05:59:46.161Z,61.86
2022-09-10T06:02:21.752Z,62.26
2022-09-10T06:04:50.458Z,61.18
2022-09-10T06:07:17.370Z,61.67
2022-09-10T06:09:44.033Z,61.89
2022-09-10T06:12:35.997Z,62.91
2022-09-10T06:15:03.643Z,62.62
2022-09-10T06:17:30.415Z,63.04
2022-09-10T06:19:57.919Z,62.38
2022-09-10T06:22:24.531Z,62.22
2022-09-10T06:24:53.717Z,62.72
2022-09-10T06:27:23.216Z,63.44
2022-09-10T06:29:51.264Z,62.96
2022-09-10T06:32:17.879Z,63.40
2022-09-10T06:34:46.018Z,63.75
2022-09-10T06:37:13.233Z,63.72
2022-09-10T06:39:40.113Z,64.75
2022-09-10T06:42:07.366Z,64.27
2022-09-10T06:45:03.108Z,64.65
2022-09-10T06:48:34.775Z,65.11
2022-09-10T06:50:57.055Z,66.02
2022-09-10T06:53:29.387Z,64.82
2022-09-10T06:55:56.693Z,64.37
2022-09-10T06:58:24.806Z,64.42
2022-09-10T07:00:52.103Z,65.13
2022-09-10T07:03:21.704Z,65.77
2022-09-10T07:05:50.656Z,65.39
2022-09-10T07:08:17.660Z,64.87
2022-09-10T07:10:47.979Z,64.79
2022-09-10T07:13:14.676Z,64.90
2022-09-10T07:15:49.406Z,64.78
2022-09-10T07:18:16.636Z,64.54
2022-09-10T07:20:45.340Z,64.70
2022-09-10T07:23:18.275Z,64.84
2022-09-10T07:25:47.376Z,64.73
2022-09-10T07:28:43.902Z,65.55
2022-09-10T07:31:18.678Z,64.84
2022-09-10T07:33:47.462Z,65.04
2022-09-10T07:36:15.102Z,65.44
2022-09-10T07:38:42.252Z,64.58
2022-09-10T07:41:12.201Z,64.44
2022-09-10T07:43:40.508Z,65.26
2022-09-10T07:46:11.675Z,64.54
2022-09-10T07:48:39.651Z,65.04
2022-09-10T07:51:08.736Z,64.72
2022-09-10T07:53:35.759Z,65.24
2022-09-10T07:56:06.964Z,63.99
2022-09-10T07:58:37.236Z,64.33
2022-09-10T08:01:14.331Z,64.37
2022-09-10T08:03:41.647Z,63.56
2022-09-10T08:06:10.630Z,64.35
2022-09-10T08:08:40.085Z,63.93
2022-09-10T08:11:13.997Z,63.91
2022-09-10T08:13:47.194Z,63.14
2022-09-10T08:16:20.489Z,63.17
2022-09-10T08:18:48.724Z,63.50
2022-09-10T08:21:17.789Z,62.60
2022-09-10T08:23:59.348Z,62.98
2022-09-10T08:26:27.844Z,63.34
2022-09-10T08:28:58.091Z,62.42
2022-09-10T08:31:26.556Z,62.50
2022-09-10T08:34:04.437Z,62.45
2022-09-10T08:36:33.691Z,62.22
2022-09-10T08:39:05.125Z,62.03
2022-09-10T08:41:38.410Z,63.24
2022-09-10T08:44:09.822Z,64.19
2022-09-10T08:46:53.412Z,64.43
2022-09-10T08:49:34.588Z,65.94
2022-09-10T08:52:30.053Z,65.87
2022-09-10T08:55:19.101Z,65.56
2022-09-10T08:57:56.048Z,65.48
2022-09-10T09:00:36.721Z,66.64
2022-09-10T09:03:29.287Z,67.09
2022-09-10T09:06:01.558Z,67.44
2022-09-10T09:08:36.521Z,67.77
2022-09-10T09:11:49.825Z,67.28
2022-09-10T09:14:47.130Z,65.23
2022-09-10T09:17:35.305Z,64.72
2022-09-10T09:20:15.236Z,65.17
2022-09-10T09:22:49.597Z,63.74
2022-09-10T09:25:24.735Z,64.18
2022-09-10T09:27:57.736Z,63.75
2022-09-10T09:30:49.307Z,63.17
2022-09-10T09:33:22.574Z,63.32
2022-09-10T09:35:59.011Z,62.27
2022-09-10T09:38:37.477Z,63.47
2022-09-10T09:41:37.064Z,62.72
2022-09-10T09:44:26.767Z,62.50
2022-09-10T09:46:53.423Z,61.25
2022-09-10T09:49:20.136Z,61.02
2022-09-10T09:51:48.729Z,60.60
2022-09-10T09:54:56.773Z,60.00
2022-09-10T09:57:16.081Z,59.85
2022-09-10T09:59:43.540Z,60.75
2022-09-10T10:02:12.413Z,60.23
2022-09-10T10:04:42.438Z,59.80
2022-09-10T10:07:09.507Z,60.28
2022-09-10T10:09:42.944Z,60.50
2022-09-10T10:12:20.197Z,60.13
2022-09-10T10:14:46.963Z,59.37
2022-09-10T10:17:25.552Z,59.97
2022-09-10T10:20:00.818Z,60.34
2022-09-10T10:22:32.263Z,60.06
2022-09-10T10:25:01.188Z,60.37
2022-09-10T10:27:32.662Z,60.40
2022-09-10T10:30:17.350Z,60.39
2022-09-10T10:32:57.987Z,60.45
2022-09-10T10:35:47.479Z,58.86
2022-09-10T10:38:13.959Z,58.63
2022-09-10T10:41:29.708Z,58.15
2022-09-10T10:44:17.644Z,57.88
2022-09-10T10:47:19.911Z,58.78
2022-09-10T10:49:54.588Z,59.37
2022-09-10T10:52:54.433Z,59.78
2022-09-10T10:55:27.463Z,58.01
2022-09-10T10:58:23.592Z,58.00
2022-09-10T11:01:23.640Z,57.63
2022-09-10T11:04:18.427Z,57.59
2022-09-10T11:06:49.137Z,57.07
2022-09-10T11:09:26.926Z,56.83
2022-09-10T11:11:53.451Z,57.16
2022-09-10T11:14:28.294Z,56.92
2022-09-10T11:17:14.896Z,57.09
2022-09-10T11:20:27.329Z,56.69
2022-09-10T11:22:59.205Z,55.92
2022-09-10T11:25:30.675Z,55.69
2022-09-10T11:28:06.888Z,55.03
2022-09-10T11:30:34.884Z,55.03
2022-09-10T11:33:11.260Z,55.61
2022-09-10T11:35:45.540Z,55.30
2022-09-10T11:38:37.852Z,55.50
2022-09-10T11:41:07.113Z,56.04
2022-09-10T11:44:12.699Z,54.83
2022-09-10T11:46:50.142Z,55.77
2022-09-10T11:49:30.999Z,55.54
2022-09-10T11:51:57.550Z,54.93
2022-09-10T11:54:30.877Z,54.81
2022-09-10T11:57:33.916Z,54.52
2022-09-10T12:00:07.215Z,54.81
2022-09-10T12:02:46.957Z,54.46
2022-09-10T12:05:39.451Z,54.89
2022-09-10T12:08:17.613Z,55.43
2022-09-10T12:11:06.190Z,55.16
2022-09-10T12:13:39.281Z,55.13
2022-09-10T12:16:20.340Z,55.27
2022-09-10T12:18:51.246Z,55.39
2022-09-10T12:21:39.640Z,55.72
2022-09-10T12:24:50.229Z,56.38
2022-09-10T12:27:19.186Z,57.34
2022-09-10T12:29:45.853Z,58.89
2022-09-10T12:32:25.828Z,61.34
2022-09-10T12:35:34.572Z,61.63
2022-09-10T12:38:41.694Z,61.31
2022-09-10T12:41:34.137Z,61.20
2022-09-10T12:44:24.848Z,60.73
2022-09-10T12:47:13.461Z,61.04
2022-09-10T12:50:03.065Z,61.32
2022-09-10T12:52:47.211Z,61.40
2022-09-10T12:55:51.131Z,61.64
2022-09-10T12:58:28.162Z,61.59
2022-09-10T13:00:54.668Z,62.55
2022-09-10T13:03:23.962Z,62.57
2022-09-10T13:05:54.171Z,63.16
2022-09-10T13:08:34.106Z,63.01
2022-09-10T13:11:01.282Z,63.20
2022-09-10T13:13:39.704Z,63.43
2022-09-10T13:16:13.889Z,61.26
2022-09-10T13:18:41.875Z,60.85
2022-09-10T13:21:23.752Z,60.38
2022-09-10T13:23:54.172Z,60.13
2022-09-10T13:26:33.982Z,59.53
2022-09-10T13:29:09.131Z,59.22
2022-09-10T13:31:42.107Z,58.50
2022-09-10T13:34:40.751Z,58.17
2022-09-10T13:37:47.556Z,57.66
2022-09-10T13:40:21.862Z,57.04
2022-09-10T13:43:10.061Z,57.14
2022-09-10T13:45:41.599Z,56.92
2022-09-10T13:48:37.943Z,56.70
2022-09-10T13:51:17.056Z,56.24
2022-09-10T13:53:46.932Z,56.01
2022-09-10T13:56:19.711Z,56.14
2022-09-10T13:59:00.499Z,56.38
2022-09-10T14:01:53.737Z,55.58
2022-09-10T14:04:31.761Z,55.33
2022-09-10T14:07:05.456Z,55.32
2022-09-10T14:09:33.293Z,55.38
2022-09-10T14:12:04.589Z,55.29
2022-09-10T14:14:37.264Z,55.02
2022-09-10T14:17:34.396Z,54.90
2022-09-10T14:20:17.924Z,54.62
2022-09-10T14:22:45.056Z,54.36
2022-09-10T14:25:31.122Z,53.94
2022-09-10T14:28:15.694Z,53.07
2022-09-10T14:30:47.813Z,53.28
2022-09-10T14:33:31.385Z,52.99
2022-09-10T14:36:12.320Z,53.25
2022-09-10T14:38:41.095Z,53.90
2022-09-10T14:41:24.592Z,54.19
2022-09-10T14:44:22.845Z,55.44
2022-09-10T14:46:57.448Z,58.01
2022-09-10T14:49:28.386Z,59.66
2022-09-10T14:51:57.125Z,61.20
2022-09-10T14:54:24.544Z,61.93
2022-09-10T14:56:51.873Z,62.88
2022-09-10T14:59:31.541Z,63.07
2022-09-10T15:02:00.607Z,63.39
2022-09-10T15:04:29.927Z,62.57
2022-09-10T15:06:58.837Z,63.13
2022-09-10T15:09:27.708Z,63.13
2022-09-10T15:12:05.770Z,64.34
2022-09-10T15:14:33.642Z,63.85
2022-09-10T15:17:00.283Z,63.53
2022-09-10T15:19:28.028Z,63.51
2022-09-10T15:21:54.699Z,64.43
2022-09-10T15:24:23.339Z,63.25
2022-09-10T15:26:53.536Z,63.77
2022-09-10T15:29:20.224Z,63.38
2022-09-10T15:31:47.021Z,63.59
2022-09-10T15:34:14.278Z,63.06
2022-09-10T15:36:41.504Z,62.64
2022-09-10T15:39:11.827Z,62.00
2022-09-10T15:41:43.544Z,62.10
2022-09-10T15:44:10.855Z,62.05
2022-09-10T15:46:41.351Z,61.79
2022-09-10T15:49:08.263Z,62.04
2022-09-10T15:51:34.792Z,61.26
2022-09-10T15:54:04.888Z,61.09
2022-09-10T15:56:32.589Z,61.77
2022-09-10T15:58:59.588Z,60.69
2022-09-10T16:01:28.745Z,60.37
2022-09-10T16:03:57.534Z,59.73
2022-09-10T16:06:27.295Z,59.33
2022-09-10T16:09:01.864Z,59.58
2022-09-10T16:11:32.775Z,58.04
2022-09-10T16:14:04.739Z,58.29
2022-09-10T16:16:32.417Z,58.24
2022-09-10T16:19:00.383Z,57.55
2022-09-10T16:21:32.115Z,57.92
2022-09-10T16:24:00.566Z,57.83
2022-09-10T16:26:34.497Z,57.74
2022-09-10T16:29:03.746Z,58.23
2022-09-10T16:31:32.700Z,58.04
2022-09-10T16:34:05.200Z,58.04
2022-09-10T16:36:34.155Z,58.36
2022-09-10T16:39:01.791Z,58.94
2022-09-10T16:41:28.908Z,58.91
2022-09-10T16:43:58.258Z,58.94
2022-09-10T16:46:26.224Z,59.61
2022-09-10T16:48:54.295Z,58.90
2022-09-10T16:51:25.860Z,59.12
2022-09-10T16:54:02.375Z,59.23
2022-09-10T16:56:33.588Z,59.18
2022-09-10T16:59:00.207Z,59.16
2022-09-10T17:01:26.819Z,59.31
2022-09-10T17:03:53.907Z,59.13
2022-09-10T17:06:27.298Z,59.08
2022-09-10T17:08:57.082Z,59.21
2022-09-10T17:11:28.491Z,59.48
2022-09-10T17:13:56.963Z,59.67
2022-09-10T17:16:32.520Z,59.98
2022-09-10T17:19:07.033Z,60.40
2022-09-10T17:21:34.987Z,61.07
2022-09-10T17:24:02.839Z,61.33
2022-09-10T17:26:31.373Z,61.46
2022-09-10T17:29:08.551Z,61.50
2022-09-10T17:31:37.227Z,61.27
2022-09-10T17:34:06.608Z,61.52
2022-09-10T17:36:34.663Z,61.18
2022-09-10T17:39:03.644Z,61.17
2022-09-10T17:41:31.067Z,61.73
2022-09-10T17:44:01.541Z,61.71
2022-09-10T17:46:31.026Z,61.86
2022-09-10T17:49:00.016Z,62.23
2022-09-10T17:51:29.561Z,62.26
2022-09-10T17:53:57.123Z,62.87
2022-09-10T17:56:26.112Z,63.45
2022-09-10T17:59:03.833Z,64.69
2022-09-10T18:01:41.644Z,64.70
2022-09-10T18:04:12.514Z,64.60
2022-09-10T18:06:39.771Z,64.65
2022-09-10T18:09:07.794Z,64.47
2022-09-10T18:11:40.031Z,64.68
2022-09-10T18:14:07.169Z,64.29
2022-09-10T18:16:36.585Z,64.05
2022-09-10T18:19:14.941Z,63.99
2022-09-10T18:21:44.978Z,64.14
2022-09-10T18:24:17.122Z,63.67
2022-09-10T18:26:46.407Z,63.54
2022-09-10T18:29:21.554Z,62.71
2022-09-10T18:31:51.020Z,62.32
2022-09-10T18:34:23.240Z,62.23
2022-09-10T18:36:54.161Z,62.82
2022-09-10T18:39:21.931Z,63.04
2022-09-10T18:41:48.493Z,63.09
2022-09-10T18:44:18.044Z,63.31
2022-09-10T18:46:46.831Z,63.29
2022-09-10T18:49:19.097Z,63.04
2022-09-10T18:51:47.677Z,63.42
2022-09-10T18:54:16.079Z,63.90
2022-09-10T18:56:44.941Z,64.07
2022-09-10T18:59:15.109Z,63.84
2022-09-10T19:01:43.470Z,64.71
2022-09-10T19:04:13.121Z,64.85
2022-09-10T19:06:43.147Z,65.28
2022-09-10T19:09:11.876Z,65.28
2022-09-10T19:11:43.687Z,64.73
2022-09-10T19:14:19.135Z,64.69
2022-09-10T19:16:47.271Z,64.68
2022-09-10T19:19:18.442Z,64.13
2022-09-10T19:21:46.035Z,64.02
2022-09-10T19:24:12.900Z,65.26
2022-09-10T19:26:39.509Z,65.15
2022-09-10T19:29:06.868Z,65.29
2022-09-10T19:31:35.076Z,65.63
2022-09-10T19:34:04.500Z,66.27
2022-09-10T19:36:34.573Z,66.26
2022-09-10T19:39:04.766Z,65.21
2022-09-10T19:41:31.593Z,65.47
2022-09-10T19:43:58.114Z,66.12
2022-09-10T19:46:28.303Z,66.73
2022-09-10T19:48:58.298Z,65.88
2022-09-10T19:51:29.167Z,66.24
2022-09-10T19:53:56.203Z,66.99
2022-09-10T19:56:28.824Z,67.02
2022-09-10T19:58:56.170Z,66.85
2022-09-10T20:01:26.232Z,67.18
2022-09-10T20:03:54.319Z,67.70
2022-09-10T20:06:25.317Z,67.84
2022-09-10T20:08:52.562Z,68.30
2022-09-10T20:11:21.868Z,68.19
2022-09-10T20:13:50.012Z,67.68
2022-09-10T20:16:17.177Z,67.80
2022-09-10T20:18:43.773Z,67.57
2022-09-10T20:21:25.521Z,67.76
2022-09-10T20:23:55.814Z,68.83
2022-09-10T20:26:25.570Z,68.68
2022-09-10T20:28:55.560Z,68.25
2022-09-10T20:31:23.497Z,68.13
2022-09-10T20:33:58.133Z,68.31
2022-09-10T20:36:26.070Z,68.23
2022-09-10T20:38:53.600Z,68.14
2022-09-10T20:41:20.768Z,68.22
2022-09-10T20:43:51.852Z,68.31
2022-09-10T20:46:20.560Z,67.56
2022-09-10T20:48:49.419Z,67.52
2022-09-10T20:51:17.945Z,66.81
2022-09-10T20:53:44.883Z,65.70
2022-09-10T20:56:14.091Z,65.76
2022-09-10T20:58:41.489Z,65.81
2022-09-10T21:01:20.272Z,65.64
2022-09-10T21:03:48.726Z,65.67
2022-09-10T21:06:19.255Z,65.76
2022-09-10T21:08:47.586Z,66.10
2022-09-10T21:11:17.829Z,66.29
2022-09-10T21:13:53.300Z,66.83
2022-09-10T21:16:23.100Z,66.29
2022-09-10T21:18:54.733Z,66.90
2022-09-10T21:21:25.316Z,67.04
2022-09-10T21:23:54.204Z,67.41
2022-09-10T21:26:23.276Z,67.10
2022-09-10T21:28:52.855Z,67.05
2022-09-10T21:31:19.487Z,67.68
2022-09-10T21:33:46.088Z,67.88
2022-09-10T21:36:15.612Z,68.88
2022-09-10T21:38:46.324Z,69.11
2022-09-10T21:41:15.920Z,68.89
2022-09-10T21:43:44.729Z,69.07
2022-09-10T21:46:13.408Z,69.30
2022-09-10T21:48:42.321Z,69.29
2022-09-10T21:51:14.495Z,69.64
2022-09-10T21:53:42.722Z,70.31
2022-09-10T21:56:12.540Z,70.64
2022-09-10T21:58:39.908Z,70.14
2022-09-10T22:01:14.288Z,69.16
2022-09-10T22:03:41.044Z,70.03
2022-09-10T22:06:10.603Z,69.73
2022-09-10T22:08:38.896Z,69.57
2022-09-10T22:11:16.164Z,69.58
2022-09-10T22:13:43.780Z,69.41
2022-09-10T22:16:12.461Z,68.69
2022-09-10T22:18:39.849Z,68.23
2022-09-10T22:21:06.822Z,67.70
2022-09-10T22:23:38.610Z,68.10
2022-09-10T22:26:10.965Z,67.99
2022-09-10T22:28:38.342Z,67.67
2022-09-10T22:31:17.138Z,68.38
2022-09-10T22:33:45.950Z,68.30
2022-09-10T22:36:21.024Z,68.50
2022-09-10T22:39:01.805Z,68.72
2022-09-10T22:41:31.465Z,68.79
2022-09-10T22:43:58.199Z,68.84
2022-09-10T22:46:24.885Z,69.27
2022-09-10T22:48:51.519Z,69.00
2022-09-10T22:51:23.675Z,68.70
2022-09-10T22:53:51.980Z,68.22
2022-09-10T22:56:22.085Z,68.97
2022-09-10T22:58:52.732Z,68.20
2022-09-10T23:01:22.661Z,68.74
2022-09-10T23:03:49.813Z,68.45
2022-09-10T23:06:24.460Z,68.49
2022-09-10T23:08:54.044Z,68.22
2022-09-10T23:11:24.602Z,69.46
2022-09-10T23:13:54.192Z,71.06
2022-09-10T23:16:22.437Z,70.92
2022-09-10T23:18:54.716Z,71.06
2022-09-10T23:21:23.907Z,71.34
2022-09-10T23:23:52.760Z,71.81
2022-09-10T23:26:19.843Z,71.88
2022-09-10T23:28:46.635Z,70.53
2022-09-10T23:31:17.377Z,71.60
2022-09-10T23:33:46.643Z,70.96
2022-09-10T23:36:14.328Z,70.33
2022-09-10T23:38:42.546Z,70.50
2022-09-10T23:41:10.954Z,70.65
2022-09-10T23:43:38.174Z,70.53
2022-09-10T23:46:05.498Z,70.41
2022-09-10T23:48:32.130Z,71.02
2022-09-10T23:50:58.911Z,70.17
2022-09-10T23:53:25.412Z,69.69
2022-09-10T23:55:52.258Z,70.06
2022-09-10T23:58:19.776Z,71.22
